Time;durP1;ratioP1;P1;durP2;ratioP2;P2;SDS_P1;SDS_P2;PMS_P1;PMS_P2;Temp;Humidity;BMP_temperature;BMP_pressure;BME280_temperature;BME280_humidity;BME280_pressure;Samples;Min_cycle;Max_cycle;Signal;HPM_P1;HPM_P2
2022/12/17 13:08:22;;;;;;;39.35;18.88;;;;;;;-5.63;97.03;98113.53;5039087;28;20037;-59
2022/12/17 13:10:52;;;;;;;33.53;17.38;;;;;;;-5.41;96.60;98114.38;5032021;28;20443;-57
2022/12/17 13:13:30;;;;;;;38.00;17.63;;;;;;;-5.32;95.81;98118.00;5048592;28;20564;-58
2022/12/17 13:16:02;;;;;;;42.28;19.10;;;;;;;-5.30;95.15;98112.59;5048038;28;20122;-58
2022/12/17 13:18:34;;;;;;;35.10;17.40;;;;;;;-5.20;95.01;98110.81;5048131;28;20129;-58
2022/12/17 13:21:03;;;;;;;37.97;18.77;;;;;;;-5.36;95.76;98101.59;5040148;28;20063;-57
2022/12/17 13:23:32;;;;;;;35.35;17.85;;;;;;;-5.36;95.69;98106.03;5010255;28;20535;-59
2022/12/17 13:26:11;;;;;;;36.35;18.73;;;;;;;-5.33;96.24;98102.28;5014203;28;20057;-59
2022/12/17 13:28:38;;;;;;;40.15;19.30;;;;;;;-5.46;97.22;98105.16;5038122;28;20052;-59
2022/12/17 13:31:15;;;;;;;37.53;18.75;;;;;;;-5.36;95.95;98101.59;5049664;28;20040;-61
2022/12/17 13:33:57;;;;;;;;;;;;;;;-5.31;96.40;98093.28;5047207;28;20106;-60
2022/12/17 13:36:49;;;;;;;42.08;18.60;;;;;;;-5.09;95.84;98091.41;5046560;28;20438;-59
2022/12/17 13:39:24;;;;;;;36.67;18.55;;;;;;;-5.16;95.03;98093.75;5039815;28;20519;-58
2022/12/17 13:41:54;;;;;;;41.42;22.05;;;;;;;-5.41;96.68;98095.91;5044513;28;20578;-61
2022/12/17 13:44:42;;;;;;;45.03;19.60;;;;;;;-5.38;98.29;98086.88;5040170;28;20041;-61
2022/12/17 13:47:32;;;;;;;37.40;19.23;;;;;;;-5.34;97.14;98093.56;5040874;28;20416;-61
2022/12/17 13:50:01;;;;;;;48.55;21.70;;;;;;;-5.25;96.20;98098.03;5043436;28;20475;-61
2022/12/17 13:52:47;;;;;;;46.92;21.60;;;;;;;-5.31;97.48;98098.56;5056739;28;20080;-57
2022/12/17 13:55:25;;;;;;;47.35;22.98;;;;;;;-5.24;97.19;98109.41;5047131;28;20125;-60
2022/12/17 13:57:53;;;;;;;43.13;21.92;;;;;;;-5.30;96.44;98110.81;5034167;28;20049;-60
2022/12/17 14:00:24;;;;;;;48.03;23.25;;;;;;;-5.43;97.73;98111.00;5026305;28;20072;-62
2022/12/17 14:02:51;;;;;;;46.20;20.60;;;;;;;-5.39;98.29;98122.13;5044517;28;20064;-59
2022/12/17 14:05:28;;;;;;;43.70;22.15;;;;;;;-5.51;98.14;98121.38;5033065;28;20458;-60
2022/12/17 14:07:59;;;;;;;49.60;23.50;;;;;;;-5.54;98.01;98121.63;5044628;28;20041;-58
2022/12/17 14:10:27;;;;;;;49.92;20.60;;;;;;;-5.45;98.83;98118.25;5058086;28;20423;-62
2022/12/17 14:13:06;;;;;;;48.88;21.65;;;;;;;-5.64;98.42;98122.44;5023812;28;20536;-62
2022/12/17 14:15:33;;;;;;;42.90;19.33;;;;;;;-5.55;98.47;98125.25;5034537;28;20033;-61
2022/12/17 14:18:01;;;;;;;41.25;20.58;;;;;;;-5.67;98.90;98140.31;5065288;28;20044;-61
2022/12/17 14:20:34;;;;;;;38.97;20.60;;;;;;;-5.58;98.96;98143.97;5034570;28;20057;-60
2022/12/17 14:23:00;;;;;;;44.10;22.13;;;;;;;-5.69;98.98;98144.88;5006112;28;1105645;-59
2022/12/17 14:25:36;;;;;;;42.13;20.55;;;;;;;-5.70;99.44;98141.44;5014227;28;20049;-60
2022/12/17 14:28:25;;;;;;;41.08;19.58;;;;;;;-5.65;99.60;98138.38;5036056;28;20042;-61
2022/12/17 14:31:02;;;;;;;43.42;22.08;;;;;;;-5.66;98.92;98142.00;5021844;28;20101;-63
2022/12/17 14:34:09;;;;;;;45.63;19.65;;;;;;;-5.69;97.98;98147.53;5037760;28;20045;-64
2022/12/17 14:36:38;;;;;;;39.45;19.33;;;;;;;-5.72;98.34;98145.97;5001962;28;20100;-63
2022/12/17 14:39:16;;;;;;;48.67;21.85;;;;;;;-5.76;98.51;98152.47;5038502;28;20034;-58
2022/12/17 14:44:30;;;;;;;42.05;20.75;;;;;;;-5.92;98.82;98137.94;5046565;28;20041;-57
2022/12/17 14:47:08;;;;;;;36.03;19.02;;;;;;;-6.19;97.07;98152.47;5046419;28;20048;-58
2022/12/17 14:49:45;;;;;;;39.92;19.52;;;;;;;-6.85;95.90;98151.56;5047103;28;20043;-57
2022/12/17 14:52:21;;;;;;;;;;;;;;;-7.19;98.58;98149.78;5055534;28;20127;-61
2022/12/17 14:54:48;;;;;;;37.95;16.85;;;;;;;-7.40;98.38;98146.19;5065031;28;19931;-61
2022/12/17 14:57:21;;;;;;;36.28;17.13;;;;;;;-7.65;98.41;98148.06;5043672;28;20692;-61
2022/12/17 14:59:49;;;;;;;36.35;17.25;;;;;;;-7.67;98.77;98150.81;5026340;28;20046;-61
2022/12/17 15:02:22;;;;;;;36.45;17.33;;;;;;;-7.66;99.46;98144.63;5035483;28;20114;-58
2022/12/17 15:04:50;;;;;;;49.30;18.67;;;;;;;-7.82;99.73;98152.81;5045321;28;20137;-61
2022/12/17 15:07:23;;;;;;;42.55;19.95;;;;;;;-7.88;100.00;98151.50;5045480;28;20049;-63
2022/12/17 15:09:51;;;;;;;41.20;19.05;;;;;;;-8.13;99.20;98150.69;5061202;28;20094;-63
2022/12/17 15:12:20;;;;;;;41.72;19.92;;;;;;;-8.44;100.00;98162.63;5063053;28;20048;-61
2022/12/17 15:14:47;;;;;;;84.43;37.72;;;;;;;-8.40;100.00;98166.69;5045622;28;20049;-56
2022/12/17 15:17:14;;;;;;;71.32;29.70;;;;;;;-8.43;100.00;98167.75;5046402;28;20056;-58
2022/12/17 15:19:40;;;;;;;39.45;21.38;;;;;;;-8.73;100.00;98168.19;5035544;28;20559;-61
2022/12/17 15:22:15;;;;;;;95.53;39.83;;;;;;;-8.94;100.00;98168.78;5047820;28;20593;-60
2022/12/17 15:24:43;;;;;;;92.05;39.15;;;;;;;-8.93;100.00;98163.41;5063262;28;20048;-60
2022/12/17 15:27:12;;;;;;;140.15;53.25;;;;;;;-8.79;100.00;98169.47;5039584;28;20037;-61
2022/12/17 15:29:39;;;;;;;115.93;47.75;;;;;;;-8.80;100.00;98165.19;5025681;28;20053;-59
2022/12/17 15:32:06;;;;;;;57.30;23.75;;;;;;;-9.08;100.00;98177.59;5032037;28;20025;-60
2022/12/17 15:34:33;;;;;;;36.83;19.88;;;;;;;-9.19;100.00;98178.34;5046168;28;20049;-61
2022/12/17 15:36:59;;;;;;;45.53;19.95;;;;;;;-9.35;100.00;98179.44;5044014;28;20045;-60
2022/12/17 15:39:27;;;;;;;38.20;18.35;;;;;;;-9.43;100.00;98179.13;5036459;28;20032;-58
2022/12/17 15:44:39;;;;;;;38.05;19.67;;;;;;;-9.72;100.00;98181.94;5037846;28;20055;-58
2022/12/17 15:47:05;;;;;;;37.92;18.63;;;;;;;-9.85;100.00;98189.78;5034211;28;20053;-61
2022/12/17 15:49:32;;;;;;;44.95;20.70;;;;;;;-9.86;100.00;98193.34;5038239;28;20765;-60
2022/12/17 15:51:58;;;;;;;49.80;26.35;;;;;;;-9.86;100.00;98195.94;5043143;28;20049;-61
2022/12/17 15:54:25;;;;;;;64.95;35.20;;;;;;;-10.02;100.00;98191.75;5044519;28;20076;-60
2022/12/17 15:56:53;;;;;;;34.95;19.42;;;;;;;-10.16;100.00;98197.88;5036921;28;20045;-60
2022/12/17 15:59:20;;;;;;;56.40;28.63;;;;;;;-10.01;100.00;98195.19;5025593;28;20083;-60
2022/12/17 16:01:47;;;;;;;39.97;18.75;;;;;;;-10.09;100.00;98196.56;5040258;28;20044;-60
2022/12/17 16:04:14;;;;;;;43.42;19.40;;;;;;;-10.24;100.00;98198.38;5039747;28;20128;-58
2022/12/17 16:06:46;;;;;;;41.00;18.88;;;;;;;-10.36;100.00;98209.66;5031342;28;20129;-59
2022/12/17 16:09:13;;;;;;;47.63;20.13;;;;;;;-10.35;100.00;98213.94;5054716;28;20515;-60
2022/12/17 16:11:40;;;;;;;46.58;21.40;;;;;;;-10.29;100.00;98218.78;5063896;28;20132;-57
2022/12/17 16:14:06;;;;;;;74.50;39.72;;;;;;;-10.50;100.00;98218.41;5047975;28;20045;-59
2022/12/17 16:16:33;;;;;;;50.78;24.73;;;;;;;-10.56;100.00;98210.94;5045912;28;20060;-59
2022/12/17 16:19:00;;;;;;;49.00;25.30;;;;;;;-10.63;100.00;98220.97;5045832;28;20033;-60
2022/12/17 16:21:27;;;;;;;53.15;24.75;;;;;;;-10.65;100.00;98215.84;5043526;28;20049;-58
2022/12/17 16:23:54;;;;;;;49.83;24.60;;;;;;;-10.51;100.00;98221.97;5034744;28;20104;-56
2022/12/17 16:26:20;;;;;;;58.38;25.80;;;;;;;-10.38;100.00;98215.00;5041268;28;20040;-59
2022/12/17 16:28:48;;;;;;;50.03;22.20;;;;;;;-10.68;100.00;98216.03;5040451;28;20037;-60
2022/12/17 16:31:15;;;;;;;63.95;26.33;;;;;;;-10.36;100.00;98204.41;5043659;28;20073;-59
2022/12/17 16:33:43;;;;;;;59.65;28.67;;;;;;;-10.13;100.00;98213.41;5045293;28;20045;-60
2022/12/17 16:36:14;;;;;;;50.45;24.90;;;;;;;-10.15;100.00;98202.16;5045067;28;20518;-60
2022/12/17 16:38:49;;;;;;;50.70;24.50;;;;;;;-10.13;100.00;98200.31;5045365;28;20116;-60
2022/12/17 16:41:17;;;;;;;52.28;23.60;;;;;;;-10.17;99.70;98198.81;5044060;28;20496;-58
2022/12/17 16:43:44;;;;;;;50.03;23.35;;;;;;;-10.27;100.00;98200.34;5044799;28;20032;-57
2022/12/17 16:46:34;;;;;;;43.42;23.50;;;;;;;-10.20;100.00;98202.50;5045604;28;20701;-58
2022/12/17 16:49:07;;;;;;;46.83;22.95;;;;;;;-10.27;99.68;98208.22;5045436;28;20049;-57
2022/12/17 16:51:33;;;;;;;45.35;23.00;;;;;;;-10.28;99.62;98206.53;5043617;28;20065;-59
2022/12/17 16:54:08;;;;;;;43.22;19.85;;;;;;;-10.28;99.50;98206.53;5044665;28;20128;-56
2022/12/17 16:56:35;;;;;;;44.33;20.75;;;;;;;-10.25;99.44;98209.78;5038557;28;20037;-61
2022/12/17 16:59:08;;;;;;;44.90;21.42;;;;;;;-10.33;99.13;98210.28;5042834;28;20041;-58
2022/12/17 17:01:36;;;;;;;46.03;24.08;;;;;;;-10.62;99.25;98207.78;5043659;28;20041;-60
2022/12/17 17:04:06;;;;;;;44.25;19.83;;;;;;;-10.63;100.00;98208.72;5044285;28;20717;-59
2022/12/17 17:06:37;;;;;;;47.35;23.27;;;;;;;-10.75;100.00;98218.19;5038197;28;20052;-60
2022/12/17 17:09:03;;;;;;;39.33;22.15;;;;;;;-10.64;100.00;98212.28;5042609;28;20056;-58
2022/12/17 17:11:30;;;;;;;48.60;22.35;;;;;;;-10.51;100.00;98220.19;5043017;28;20056;-57
2022/12/17 17:13:57;;;;;;;41.80;21.40;;;;;;;-10.61;100.00;98222.53;5044894;28;20424;-61
2022/12/17 17:16:24;;;;;;;45.60;19.75;;;;;;;-10.44;100.00;98225.88;5045025;28;20033;-57
2022/12/17 17:18:53;;;;;;;49.30;24.40;;;;;;;-10.56;99.94;98232.72;5044018;28;20064;-59
2022/12/17 17:21:19;;;;;;;60.85;28.58;;;;;;;-10.39;100.00;98226.41;5035907;28;20127;-58
2022/12/17 17:23:47;;;;;;;46.85;22.88;;;;;;;-10.37;99.22;98228.91;5042624;28;20095;-58
2022/12/17 17:26:14;;;;;;;44.47;20.98;;;;;;;-10.33;99.42;98226.00;5047732;28;20520;-60
2022/12/17 17:28:41;;;;;;;48.33;21.23;;;;;;;-10.28;97.85;98228.34;5048049;28;20778;-59
2022/12/17 17:31:10;;;;;;;44.70;23.85;;;;;;;-10.66;98.46;98235.06;5046626;28;20562;-59
2022/12/17 17:33:45;;;;;;;39.63;19.17;;;;;;;-10.74;98.82;98238.19;5047778;28;20064;-60
2022/12/17 17:36:20;;;;;;;43.90;22.90;;;;;;;-10.71;99.75;98242.38;5045961;28;20044;-59
2022/12/17 17:38:48;;;;;;;38.38;19.63;;;;;;;-10.73;99.69;98250.31;5028485;28;20080;-57
2022/12/17 17:41:18;;;;;;;46.35;23.92;;;;;;;-10.77;99.37;98243.59;5027213;28;20048;-59
2022/12/17 17:43:45;;;;;;;34.83;17.90;;;;;;;-10.67;99.47;98246.50;5027821;28;20103;-57
2022/12/17 17:46:16;;;;;;;42.90;22.30;;;;;;;-10.72;99.29;98249.38;5028759;28;20120;-61
2022/12/17 17:48:45;;;;;;;40.90;20.15;;;;;;;-11.16;97.95;98248.56;5048021;28;20055;-61
2022/12/17 17:51:17;;;;;;;52.33;23.65;;;;;;;-11.06;99.09;98243.59;5046251;28;20517;-60
2022/12/17 17:53:47;;;;;;;44.78;21.17;;;;;;;-11.10;98.52;98250.81;5041352;28;20043;-59
2022/12/17 17:56:18;;;;;;;41.05;22.25;;;;;;;-11.05;99.08;98249.69;5045505;28;20053;-59
2022/12/17 17:58:48;;;;;;;39.35;20.20;;;;;;;-11.10;99.09;98250.81;5045239;28;20654;-61
2022/12/17 18:01:18;;;;;;;43.33;22.35;;;;;;;-11.36;99.19;98248.00;5027681;28;20072;-61
2022/12/17 18:03:45;;;;;;;43.53;20.83;;;;;;;-11.53;99.74;98245.53;5036187;28;20056;-61
2022/12/17 18:06:13;;;;;;;48.00;24.23;;;;;;;-11.67;100.00;98243.72;5027695;28;20072;-61
2022/12/17 18:08:40;;;;;;;44.50;23.23;;;;;;;-11.55;100.00;98247.38;5041558;28;20052;-60
2022/12/17 18:11:12;;;;;;;39.78;21.38;;;;;;;-11.30;100.00;98246.78;5045543;28;20574;-59
2022/12/17 18:13:54;;;;;;;39.67;21.92;;;;;;;-11.34;100.00;98244.44;5045219;28;20560;-61
2022/12/17 18:16:23;;;;;;;51.00;23.42;;;;;;;-11.44;99.80;98249.38;5027854;28;20045;-60
2022/12/17 18:18:51;;;;;;;49.78;23.00;;;;;;;-11.42;100.00;98244.91;5030285;28;20053;-61
2022/12/17 18:21:18;;;;;;;38.72;19.73;;;;;;;-11.40;100.00;98246.50;5034737;28;20128;-59
2022/12/17 18:23:45;;;;;;;57.03;25.60;;;;;;;-11.27;99.62;98238.78;5047187;28;20649;-60
2022/12/17 18:26:21;;;;;;;44.30;22.33;;;;;;;-11.59;98.65;98240.66;5047291;28;20090;-60
2022/12/17 18:28:48;;;;;;;42.42;21.33;;;;;;;-11.53;99.46;98242.94;5041115;28;20045;-59
2022/12/17 18:31:17;;;;;;;39.20;20.02;;;;;;;-11.85;99.18;98253.47;5045981;28;20106;-57
2022/12/17 18:33:47;;;;;;;46.53;23.25;;;;;;;-11.93;100.00;98262.59;5047350;28;20041;-60
2022/12/17 18:36:16;;;;;;;45.65;22.48;;;;;;;-11.99;100.00;98262.13;5043319;28;20052;-58
2022/12/17 18:38:43;;;;;;;45.25;19.92;;;;;;;-11.86;100.00;98264.84;5027625;28;20047;-59
2022/12/17 18:44:00;;;;;;;37.75;21.15;;;;;;;-11.98;100.00;98276.84;5035796;28;20048;-61
2022/12/17 18:46:28;;;;;;;56.03;25.77;;;;;;;-11.89;100.00;98284.16;5038223;28;20731;-60
2022/12/17 18:49:00;;;;;;;37.05;18.08;;;;;;;-12.01;100.00;98275.25;5046408;28;20515;-59
2022/12/17 18:51:27;;;;;;;38.75;18.15;;;;;;;-11.81;99.73;98284.56;5044239;28;20068;-60
2022/12/17 18:53:58;;;;;;;34.60;16.20;;;;;;;-12.02;99.29;98290.06;5042546;28;20036;-61
2022/12/17 18:56:25;;;;;;;51.15;24.48;;;;;;;-11.97;100.00;98288.97;5045029;28;20424;-59
2022/12/17 18:59:14;;;;;;;37.55;20.02;;;;;;;-12.13;100.00;98294.25;5047085;28;20075;-58
2022/12/17 19:01:42;;;;;;;39.65;21.27;;;;;;;-12.07;100.00;98286.06;5045161;28;20117;-60
2022/12/17 19:04:11;;;;;;;38.75;21.60;;;;;;;-11.96;100.00;98293.25;5038136;28;20666;-59
2022/12/17 19:06:38;;;;;;;41.38;23.05;;;;;;;-11.68;100.00;98287.31;5030679;28;20048;-59
2022/12/17 19:09:06;;;;;;;39.58;20.95;;;;;;;-11.71;99.68;98295.34;5051815;28;20507;-60
2022/12/17 19:11:34;;;;;;;47.40;20.48;;;;;;;-11.86;99.78;98291.84;5025984;28;20037;-59
2022/12/17 19:14:08;;;;;;;44.42;21.70;;;;;;;-11.85;99.73;98295.25;5035832;28;20053;-59
2022/12/17 19:16:35;;;;;;;41.25;18.77;;;;;;;-11.84;100.00;98291.75;5033286;28;20053;-59
2022/12/17 19:19:04;;;;;;;41.10;21.45;;;;;;;-11.62;100.00;98291.34;5045766;28;20072;-59
2022/12/17 19:21:32;;;;;;;48.00;19.33;;;;;;;-11.63;100.00;98303.56;5044352;28;20083;-60
2022/12/17 19:24:02;;;;;;;52.50;22.52;;;;;;;-11.69;100.00;98305.69;5046286;28;20048;-57
2022/12/17 19:26:29;;;;;;;42.80;20.38;;;;;;;-11.60;100.00;98312.16;5045059;28;20099;-57
2022/12/17 19:28:57;;;;;;;50.97;24.83;;;;;;;-11.63;100.00;98316.66;5046165;28;20041;-58
2022/12/17 19:31:27;;;;;;;46.85;24.17;;;;;;;-11.68;100.00;98323.06;5044385;28;20041;-58
2022/12/17 19:33:55;;;;;;;37.75;20.98;;;;;;;-11.71;100.00;98321.47;5045382;28;20539;-59
2022/12/17 19:36:23;;;;;;;30.50;14.98;;;;;;;-11.61;100.00;98316.56;5042160;28;20049;-58
2022/12/17 19:38:56;;;;;;;47.85;20.08;;;;;;;-11.36;100.00;98321.19;5025809;28;20103;-58
2022/12/17 19:41:24;;;;;;;47.00;22.33;;;;;;;-11.53;99.55;98321.34;5027285;28;20045;-60
2022/12/17 19:43:55;;;;;;;43.92;21.80;;;;;;;-11.88;99.87;98320.66;5045950;28;20123;-60
2022/12/17 19:46:22;;;;;;;38.55;20.67;;;;;;;-12.04;100.00;98327.66;5044800;28;20608;-60
2022/12/17 19:48:50;;;;;;;35.50;17.85;;;;;;;-12.03;100.00;98321.50;5045080;28;20128;-59
2022/12/17 19:51:21;;;;;;;47.53;19.23;;;;;;;-12.04;100.00;98325.03;5044488;28;20041;-62
2022/12/17 19:53:48;;;;;;;47.08;22.23;;;;;;;-11.75;100.00;98314.72;5040895;28;20606;-61
2022/12/17 19:56:16;;;;;;;46.50;20.33;;;;;;;-11.55;100.00;98310.97;5039739;28;20059;-62
2022/12/17 19:58:44;;;;;;;51.72;23.42;;;;;;;-11.66;100.00;98302.91;5040724;28;20053;-61
2022/12/17 20:01:16;;;;;;;48.13;20.58;;;;;;;-11.81;100.00;98315.06;5040496;28;20059;-60
2022/12/17 20:03:44;;;;;;;35.00;21.02;;;;;;;-11.99;100.00;98309.13;5041870;28;20178;-61
2022/12/17 20:06:12;;;;;;;28.70;15.15;;;;;;;-11.96;100.00;98316.75;5040366;28;20666;-60
2022/12/17 20:08:39;;;;;;;29.35;15.90;;;;;;;-11.87;100.00;98321.50;5031891;28;20141;-59
2022/12/17 20:14:00;;;;;;;37.33;17.38;;;;;;;-11.86;99.87;98317.09;5048990;28;20049;-59
2022/12/17 20:16:28;;;;;;;40.80;19.55;;;;;;;-12.11;99.74;98314.13;5036740;28;20041;-58
2022/12/17 20:18:57;;;;;;;38.95;18.95;;;;;;;-12.27;100.00;98321.97;5040545;28;20045;-60
2022/12/17 20:21:24;;;;;;;40.30;20.60;;;;;;;-12.58;98.88;98331.44;5030802;28;20048;-60
2022/12/17 20:23:50;;;;;;;33.17;17.58;;;;;;;-12.40;100.00;98319.16;5041176;28;20049;-58
2022/12/17 20:26:18;;;;;;;56.00;25.83;;;;;;;-12.49;100.00;98319.69;5026390;28;20128;-59
2022/12/17 20:28:45;;;;;;;40.67;23.23;;;;;;;-12.58;100.00;98308.81;5021854;28;20053;-60
2022/12/17 20:31:12;;;;;;;32.67;17.92;;;;;;;-12.58;100.00;98315.78;5020973;28;20037;-59
2022/12/17 20:33:38;;;;;;;40.60;19.88;;;;;;;-12.59;100.00;98301.91;5037493;28;20128;-61
2022/12/17 20:36:08;;;;;;;28.15;17.88;;;;;;;-12.59;100.00;98307.13;5041416;28;20115;-60
2022/12/17 20:38:36;;;;;;;31.42;15.63;;;;;;;-12.47;100.00;98308.22;5024437;28;20103;-59
2022/12/17 20:41:17;;;;;;;59.38;27.35;;;;;;;-12.52;100.00;98312.00;5020394;28;20046;-59
2022/12/17 20:43:44;;;;;;;44.13;18.93;;;;;;;-12.43;100.00;98309.75;5033530;28;20045;-59
2022/12/17 20:46:11;;;;;;;35.40;19.00;;;;;;;-12.35;100.00;98311.09;5042228;28;20048;-59
2022/12/17 20:48:39;;;;;;;31.52;18.02;;;;;;;-12.44;100.00;98318.50;5042929;28;20049;-59
2022/12/17 20:51:20;;;;;;;39.00;21.77;;;;;;;-12.41;100.00;98327.94;5042108;28;20496;-59
2022/12/17 20:53:51;;;;;;;42.42;20.15;;;;;;;-12.23;100.00;98325.25;5045062;28;20049;-61
2022/12/17 20:56:22;;;;;;;47.67;22.83;;;;;;;-12.54;98.29;98317.31;5046376;28;20053;-60
2022/12/17 20:58:58;;;;;;;46.33;21.92;;;;;;;-12.78;99.24;98315.09;5045975;28;20044;-59
2022/12/17 21:01:26;;;;;;;48.83;21.65;;;;;;;-12.77;99.54;98315.91;5043838;28;20567;-58
2022/12/17 21:03:54;;;;;;;41.35;20.13;;;;;;;-12.76;100.00;98305.41;5046026;28;20149;-60
2022/12/17 21:06:24;;;;;;;37.65;22.17;;;;;;;-12.83;100.00;98306.69;5041833;28;20061;-60
2022/12/17 21:08:53;;;;;;;41.65;19.83;;;;;;;-12.89;100.00;98313.06;5038237;28;20053;-60
2022/12/17 21:11:23;;;;;;;39.13;20.45;;;;;;;-12.83;100.00;98314.50;5064518;28;20028;-56
2022/12/17 21:13:51;;;;;;;37.38;17.90;;;;;;;-12.79;100.00;98308.19;5056178;28;20820;-57
2022/12/17 21:16:21;;;;;;;36.05;18.63;;;;;;;-12.84;99.76;98308.44;5045600;28;20071;-58
2022/12/17 21:18:47;;;;;;;35.30;18.13;;;;;;;-13.01;98.35;98309.34;5046146;28;20073;-59
2022/12/17 21:21:21;;;;;;;40.65;20.25;;;;;;;-12.98;99.89;98316.97;5038274;28;20041;-60
2022/12/17 21:23:48;;;;;;;35.73;16.63;;;;;;;-12.99;100.00;98311.84;5036697;28;20053;-60
2022/12/17 21:26:20;;;;;;;40.03;19.08;;;;;;;-13.05;100.00;98313.00;5045381;28;20114;-60
2022/12/17 21:28:49;;;;;;;41.28;19.42;;;;;;;-13.12;100.00;98316.84;5038771;28;20142;-59
2022/12/17 21:31:19;;;;;;;41.80;21.52;;;;;;;-13.10;100.00;98328.03;5022518;28;20045;-60
2022/12/17 21:33:47;;;;;;;35.90;17.10;;;;;;;-13.01;100.00;98319.75;5034173;28;20573;-59
2022/12/17 21:36:16;;;;;;;36.28;16.25;;;;;;;-12.83;100.00;98317.09;5044082;28;20048;-58
2022/12/17 21:38:43;;;;;;;40.97;18.88;;;;;;;-12.84;99.46;98315.41;5044513;28;20060;-59
2022/12/17 21:41:18;;;;;;;33.78;16.00;;;;;;;-12.93;99.16;98317.56;5043841;28;20397;-59
2022/12/17 21:43:45;;;;;;;34.10;17.13;;;;;;;-13.20;99.26;98322.47;5045040;28;20041;-60
2022/12/17 21:46:13;;;;;;;30.63;17.20;;;;;;;-12.75;100.00;98333.19;5044771;28;20041;-57
2022/12/17 21:48:41;;;;;;;37.83;19.13;;;;;;;-12.63;100.00;98334.31;5045792;28;20044;-58
2022/12/17 21:51:11;;;;;;;27.15;17.52;;;;;;;-12.49;99.05;98335.34;5043715;28;20045;-58
2022/12/17 21:53:41;;;;;;;43.67;19.15;;;;;;;-12.95;98.00;98324.66;5044259;28;20079;-60
2022/12/17 21:56:16;;;;;;;23.95;13.35;;;;;;;-13.20;99.30;98341.53;5043135;28;20048;-59
2022/12/17 21:58:45;;;;;;;32.03;14.20;;;;;;;-13.19;100.00;98337.19;5045163;28;20052;-58
2022/12/17 22:01:18;;;;;;;28.73;15.88;;;;;;;-12.97;100.00;98330.88;5042888;28;20558;-57
2022/12/17 22:03:46;;;;;;;29.33;15.40;;;;;;;-13.11;100.00;98344.59;5045426;28;20561;-56
2022/12/17 22:06:21;;;;;;;30.75;15.13;;;;;;;-13.02;100.00;98356.34;5041657;28;20041;-58
2022/12/17 22:08:49;;;;;;;34.72;14.25;;;;;;;-13.09;100.00;98348.00;5036643;28;20152;-59
2022/12/17 22:11:23;;;;;;;33.45;17.10;;;;;;;-13.09;100.00;98343.59;5063254;28;20476;-60
2022/12/17 22:14:11;;;;;;;36.03;16.55;;;;;;;-13.09;100.00;98345.38;5049951;28;20041;-59
2022/12/17 22:16:47;;;;;;;28.52;14.82;;;;;;;-13.08;100.00;98341.84;5043541;28;20037;-58
2022/12/17 22:19:18;;;;;;;28.95;16.17;;;;;;;-12.86;100.00;98348.56;5043944;28;20052;-56
2022/12/17 22:21:49;;;;;;;31.17;17.73;;;;;;;-12.75;100.00;98340.19;5042758;28;20044;-59
2022/12/17 22:24:18;;;;;;;34.92;16.42;;;;;;;-12.72;100.00;98345.25;5044055;28;20053;-58
2022/12/17 22:26:46;;;;;;;23.95;14.02;;;;;;;-12.96;99.87;98349.03;5035843;28;20050;-59
2022/12/17 22:32:58;;;;;;;38.20;15.40;;;;;;;-12.94;100.00;98352.41;5024025;28;20045;-60
2022/12/17 22:34:45;;;;;;;20.45;13.27;;;;;;;-13.00;100.00;98342.28;5044667;28;20127;-58
2022/12/17 22:37:32;;;;;;;18.33;11.80;;;;;;;-12.72;100.00;98342.63;5029989;28;20045;-59
2022/12/17 22:40:21;;;;;;;18.80;10.15;;;;;;;-12.84;99.91;98338.88;5023115;28;20053;-60
2022/12/17 22:43:28;;;;;;;29.70;14.63;;;;;;;-13.01;100.00;98339.75;5029212;28;20444;-56
2022/12/17 22:46:15;;;;;;;22.10;13.27;;;;;;;-12.97;100.00;98339.50;5024134;28;20663;-59
2022/12/17 22:48:41;;;;;;;22.15;13.05;;;;;;;-13.04;98.80;98343.38;5028164;28;20071;-59
2022/12/17 22:51:09;;;;;;;22.88;12.70;;;;;;;-13.04;100.00;98334.69;5042109;28;20052;-58
2022/12/17 22:53:42;;;;;;;29.88;17.45;;;;;;;-13.16;100.00;98341.41;5043191;28;20068;-58
2022/12/17 22:56:09;;;;;;;24.95;14.25;;;;;;;-13.11;100.00;98340.25;5043046;28;20111;-59
2022/12/17 22:58:56;;;;;;;24.20;13.32;;;;;;;-13.19;100.00;98337.19;5044034;28;20492;-59
2022/12/17 23:01:23;;;;;;;23.38;13.07;;;;;;;-13.22;100.00;98343.41;5041272;28;20140;-59
2022/12/17 23:03:56;;;;;;;31.92;11.18;;;;;;;-13.29;100.00;98336.81;5043856;28;20076;-56
2022/12/17 23:06:23;;;;;;;19.45;11.60;;;;;;;-13.32;100.00;98334.34;5039816;28;20037;-56
2022/12/17 23:08:50;;;;;;;22.98;13.23;;;;;;;-13.38;100.00;98345.09;5035503;28;20511;-60
2022/12/17 23:11:22;;;;;;;29.77;13.77;;;;;;;-13.36;100.00;98344.09;5062188;28;20127;-58
2022/12/17 23:13:49;;;;;;;27.15;14.13;;;;;;;-13.42;100.00;98357.41;5059293;28;20110;-59
2022/12/17 23:16:17;;;;;;;33.40;13.60;;;;;;;-13.39;100.00;98356.44;5040606;28;20049;-57
2022/12/17 23:18:45;;;;;;;16.80;11.25;;;;;;;-13.53;100.00;98360.56;5040313;28;20965;-59
2022/12/17 23:21:16;;;;;;;24.67;13.90;;;;;;;-13.43;100.00;98357.50;5028190;28;20048;-58
2022/12/17 23:23:43;;;;;;;25.25;12.80;;;;;;;-13.24;100.00;98360.84;5042424;28;20076;-59
2022/12/17 23:26:24;;;;;;;29.35;12.45;;;;;;;-13.19;100.00;98353.66;5040931;28;20397;-58
2022/12/17 23:28:53;;;;;;;17.83;10.13;;;;;;;-13.20;100.00;98359.78;5027469;28;20510;-59
2022/12/17 23:31:20;;;;;;;24.60;13.32;;;;;;;-13.26;100.00;98356.66;5042150;28;20531;-59
2022/12/17 23:33:47;;;;;;;27.08;10.50;;;;;;;-13.22;100.00;98359.03;5026800;28;20041;-58
2022/12/17 23:36:16;;;;;;;33.38;14.63;;;;;;;-13.26;98.43;98365.31;5035115;28;20633;-57
2022/12/17 23:38:43;;;;;;;22.58;12.55;;;;;;;-12.80;100.00;98358.66;5039044;28;20076;-59
2022/12/17 23:41:21;;;;;;;27.90;11.85;;;;;;;-13.11;99.20;98363.72;5044658;28;20128;-57
2022/12/17 23:43:49;;;;;;;23.52;10.60;;;;;;;-13.25;99.87;98353.97;5044510;28;20040;-59
2022/12/17 23:46:16;;;;;;;24.58;12.05;;;;;;;-13.17;100.00;98350.16;5044328;28;20041;-59
2022/12/17 23:48:44;;;;;;;18.27;12.73;;;;;;;-13.20;100.00;98351.97;5044859;28;20127;-58
2022/12/17 23:51:14;;;;;;;23.02;12.30;;;;;;;-13.13;99.93;98354.28;5031549;28;20083;-57
2022/12/17 23:53:41;;;;;;;27.38;13.57;;;;;;;-13.07;100.00;98359.16;5045556;28;20497;-59
2022/12/17 23:56:17;;;;;;;21.55;12.13;;;;;;;-13.03;100.00;98357.22;5034374;28;20072;-58
2022/12/17 23:58:45;;;;;;;19.67;11.73;;;;;;;-12.99;100.00;98358.78;5025372;28;20128;-57
